< < Back
Terminal Aerodrome Forecast


Current Version              Previous Versions:   1  2  3  4  5  6  7  8  9  

Terminal Aerodrome Forecast

774
FTUS42 KGSP 251738
TAFGSP
TAF
KGSP 251738Z 2518/2618 05006KT P6SM BKN060
     FM260100 06006KT P6SM BKN035
     FM260500 04005KT P6SM OVC015
     FM260800 04006KT P6SM OVC007
     FM261400 06007KT P6SM BKN020
     FM261600 06007KT P6SM SCT035=

Latest METAR

175
SAUS70 KWBC 251700 RRB
MTRGSP
METAR KGSP 251653Z 02007KT 330V040 10SM SCT060 BKN070 32/17 A3011 RMK
AO2 SLP181 T03220167


USA.gov is the U.S. government's official web portal to all federal, state and local government web resources and services.